sensor_id;sensor_type;location;lat;lon;timestamp;temperature;humidity
2579;DHT22;1299;48.282;14.398;2023-09-19T00:00:15;19.20;99.90
2579;DHT22;1299;48.282;14.398;2023-09-19T00:02:45;19.20;99.90
2579;DHT22;1299;48.282;14.398;2023-09-19T00:05:14;19.20;99.90
2579;DHT22;1299;48.282;14.398;2023-09-19T00:07:40;19.20;99.90
2579;DHT22;1299;48.282;14.398;2023-09-19T00:10:08;19.30;99.90
2579;DHT22;1299;48.282;14.398;2023-09-19T00:12:36;19.30;99.90
2579;DHT22;1299;48.282;14.398;2023-09-19T00:15:05;19.20;99.90
2579;DHT22;1299;48.282;14.398;2023-09-19T00:17:32;19.00;99.90
2579;DHT22;1299;48.282;14.398;2023-09-19T00:20:00;18.90;99.90
2579;DHT22;1299;48.282;14.398;2023-09-19T00:22:40;19.00;99.90
2579;DHT22;1299;48.282;14.398;2023-09-19T00:25:08;19.10;99.90
2579;DHT22;1299;48.282;14.398;2023-09-19T00:27:37;18.90;99.90
2579;DHT22;1299;48.282;14.398;2023-09-19T00:30:09;19.10;99.90
2579;DHT22;1299;48.282;14.398;2023-09-19T00:32:40;19.30;99.90
2579;DHT22;1299;48.282;14.398;2023-09-19T00:35:08;19.30;99.90
2579;DHT22;1299;48.282;14.398;2023-09-19T00:37:36;19.40;99.90
2579;DHT22;1299;48.282;14.398;2023-09-19T00:40:04;19.40;99.90
2579;DHT22;1299;48.282;14.398;2023-09-19T00:42:31;19.30;99.90
2579;DHT22;1299;48.282;14.398;2023-09-19T00:44:59;19.40;99.90
2579;DHT22;1299;48.282;14.398;2023-09-19T00:47:30;19.30;99.90
2579;DHT22;1299;48.282;14.398;2023-09-19T00:49:57;19.40;99.90
2579;DHT22;1299;48.282;14.398;2023-09-19T00:52:25;19.20;99.90
2579;DHT22;1299;48.282;14.398;2023-09-19T00:54:53;19.10;99.90
2579;DHT22;1299;48.282;14.398;2023-09-19T00:57:20;19.10;99.90
2579;DHT22;1299;48.282;14.398;2023-09-19T00:59:50;18.80;99.90
2579;DHT22;1299;48.282;14.398;2023-09-19T01:02:19;18.80;99.90
2579;DHT22;1299;48.282;14.398;2023-09-19T01:04:48;18.70;99.90
2579;DHT22;1299;48.282;14.398;2023-09-19T01:07:15;18.80;99.90
2579;DHT22;1299;48.282;14.398;2023-09-19T01:09:43;18.80;99.90
2579;DHT22;1299;48.282;14.398;2023-09-19T01:12:12;18.60;99.90
2579;DHT22;1299;48.282;14.398;2023-09-19T01:14:50;18.60;99.90
2579;DHT22;1299;48.282;14.398;2023-09-19T01:17:27;18.50;99.90
2579;DHT22;1299;48.282;14.398;2023-09-19T01:23:11;18.40;99.90
2579;DHT22;1299;48.282;14.398;2023-09-19T01:26:07;18.50;99.90
2579;DHT22;1299;48.282;14.398;2023-09-19T01:29:00;18.40;99.90
2579;DHT22;1299;48.282;14.398;2023-09-19T01:31:31;18.50;99.90
2579;DHT22;1299;48.282;14.398;2023-09-19T01:34:02;18.40;99.90
2579;DHT22;1299;48.282;14.398;2023-09-19T01:36:31;18.40;99.90
2579;DHT22;1299;48.282;14.398;2023-09-19T01:39:00;18.60;99.90
2579;DHT22;1299;48.282;14.398;2023-09-19T01:41:58;18.80;99.90
2579;DHT22;1299;48.282;14.398;2023-09-19T01:44:44;18.60;99.90
2579;DHT22;1299;48.282;14.398;2023-09-19T01:47:20;18.80;99.90
2579;DHT22;1299;48.282;14.398;2023-09-19T01:49:55;18.80;99.90
2579;DHT22;1299;48.282;14.398;2023-09-19T01:52:31;18.70;99.90
2579;DHT22;1299;48.282;14.398;2023-09-19T01:55:06;18.70;99.90
2579;DHT22;1299;48.282;14.398;2023-09-19T01:57:37;18.70;99.90
2579;DHT22;1299;48.282;14.398;2023-09-19T02:00:08;18.80;99.90
2579;DHT22;1299;48.282;14.398;2023-09-19T02:02:42;18.80;99.90
2579;DHT22;1299;48.282;14.398;2023-09-19T02:05:11;18.70;99.90
2579;DHT22;1299;48.282;14.398;2023-09-19T02:07:38;18.60;99.90
2579;DHT22;1299;48.282;14.398;2023-09-19T02:10:07;18.40;99.90
2579;DHT22;1299;48.282;14.398;2023-09-19T02:12:35;18.20;99.90
2579;DHT22;1299;48.282;14.398;2023-09-19T02:15:04;18.40;99.90
2579;DHT22;1299;48.282;14.398;2023-09-19T02:17:33;18.40;99.90
2579;DHT22;1299;48.282;14.398;2023-09-19T02:20:01;18.60;99.90
2579;DHT22;1299;48.282;14.398;2023-09-19T02:22:35;18.50;99.90
2579;DHT22;1299;48.282;14.398;2023-09-19T02:25:02;18.70;99.90
2579;DHT22;1299;48.282;14.398;2023-09-19T02:27:30;18.80;99.90
2579;DHT22;1299;48.282;14.398;2023-09-19T02:29:57;18.90;99.90
2579;DHT22;1299;48.282;14.398;2023-09-19T02:32:24;19.00;99.90
2579;DHT22;1299;48.282;14.398;2023-09-19T02:34:51;19.00;99.90
2579;DHT22;1299;48.282;14.398;2023-09-19T02:37:20;19.00;99.90
2579;DHT22;1299;48.282;14.398;2023-09-19T02:39:48;19.00;99.90
2579;DHT22;1299;48.282;14.398;2023-09-19T02:42:15;19.00;99.90
2579;DHT22;1299;48.282;14.398;2023-09-19T02:44:42;18.90;99.90
2579;DHT22;1299;48.282;14.398;2023-09-19T02:47:12;18.90;99.90
2579;DHT22;1299;48.282;14.398;2023-09-19T02:49:40;18.60;99.90
2579;DHT22;1299;48.282;14.398;2023-09-19T02:52:08;18.80;99.90
2579;DHT22;1299;48.282;14.398;2023-09-19T02:54:38;18.50;99.90
2579;DHT22;1299;48.282;14.398;2023-09-19T02:57:05;18.60;99.90
2579;DHT22;1299;48.282;14.398;2023-09-19T02:59:33;18.60;99.90
2579;DHT22;1299;48.282;14.398;2023-09-19T03:02:03;18.70;99.90
2579;DHT22;1299;48.282;14.398;2023-09-19T03:04:31;18.70;99.90
2579;DHT22;1299;48.282;14.398;2023-09-19T03:06:59;18.70;99.90
2579;DHT22;1299;48.282;14.398;2023-09-19T03:09:26;18.70;99.90
2579;DHT22;1299;48.282;14.398;2023-09-19T03:11:55;18.70;99.90
2579;DHT22;1299;48.282;14.398;2023-09-19T03:14:22;18.70;99.90
2579;DHT22;1299;48.282;14.398;2023-09-19T03:16:49;18.40;99.90
2579;DHT22;1299;48.282;14.398;2023-09-19T03:19:18;18.30;99.90
2579;DHT22;1299;48.282;14.398;2023-09-19T03:21:46;18.40;99.90
2579;DHT22;1299;48.282;14.398;2023-09-19T03:24:16;18.30;99.90
2579;DHT22;1299;48.282;14.398;2023-09-19T03:26:43;18.30;99.90
2579;DHT22;1299;48.282;14.398;2023-09-19T03:29:12;18.40;99.90
2579;DHT22;1299;48.282;14.398;2023-09-19T03:31:39;18.40;99.90
2579;DHT22;1299;48.282;14.398;2023-09-19T03:34:06;18.40;99.90
2579;DHT22;1299;48.282;14.398;2023-09-19T03:36:34;18.40;99.90
2579;DHT22;1299;48.282;14.398;2023-09-19T03:39:02;18.50;99.90
2579;DHT22;1299;48.282;14.398;2023-09-19T03:41:30;18.30;99.90
2579;DHT22;1299;48.282;14.398;2023-09-19T03:43:58;18.30;99.90
2579;DHT22;1299;48.282;14.398;2023-09-19T03:46:27;18.20;99.90
2579;DHT22;1299;48.282;14.398;2023-09-19T03:48:54;18.30;99.90
2579;DHT22;1299;48.282;14.398;2023-09-19T03:51:21;18.30;99.90
2579;DHT22;1299;48.282;14.398;2023-09-19T03:53:48;18.30;99.90
2579;DHT22;1299;48.282;14.398;2023-09-19T03:56:15;18.30;99.90
2579;DHT22;1299;48.282;14.398;2023-09-19T03:58:43;18.30;99.90
2579;DHT22;1299;48.282;14.398;2023-09-19T04:01:10;18.20;99.90
2579;DHT22;1299;48.282;14.398;2023-09-19T04:03:40;18.30;99.90
2579;DHT22;1299;48.282;14.398;2023-09-19T04:06:13;18.30;99.90
2579;DHT22;1299;48.282;14.398;2023-09-19T04:08:40;18.30;99.90
2579;DHT22;1299;48.282;14.398;2023-09-19T04:11:07;18.10;99.90
2579;DHT22;1299;48.282;14.398;2023-09-19T04:13:34;18.00;99.90
2579;DHT22;1299;48.282;14.398;2023-09-19T04:16:02;18.10;99.90
2579;DHT22;1299;48.282;14.398;2023-09-19T04:18:29;18.20;99.90
2579;DHT22;1299;48.282;14.398;2023-09-19T04:20:59;18.20;99.90
2579;DHT22;1299;48.282;14.398;2023-09-19T04:23:28;18.10;99.90
2579;DHT22;1299;48.282;14.398;2023-09-19T04:25:55;18.10;99.90
2579;DHT22;1299;48.282;14.398;2023-09-19T04:28:23;18.10;99.90
2579;DHT22;1299;48.282;14.398;2023-09-19T04:30:50;18.10;99.90
2579;DHT22;1299;48.282;14.398;2023-09-19T04:33:17;18.10;99.90
2579;DHT22;1299;48.282;14.398;2023-09-19T04:35:44;17.90;99.90
2579;DHT22;1299;48.282;14.398;2023-09-19T04:38:12;18.00;99.90
2579;DHT22;1299;48.282;14.398;2023-09-19T04:40:40;18.00;99.90
2579;DHT22;1299;48.282;14.398;2023-09-19T04:43:07;18.00;99.90
2579;DHT22;1299;48.282;14.398;2023-09-19T04:45:34;18.00;99.90
2579;DHT22;1299;48.282;14.398;2023-09-19T04:48:01;18.00;99.90
2579;DHT22;1299;48.282;14.398;2023-09-19T04:50:29;18.00;99.90
2579;DHT22;1299;48.282;14.398;2023-09-19T04:52:56;18.10;99.90
2579;DHT22;1299;48.282;14.398;2023-09-19T04:55:24;18.20;99.90
2579;DHT22;1299;48.282;14.398;2023-09-19T04:57:51;18.20;99.90
2579;DHT22;1299;48.282;14.398;2023-09-19T05:00:20;18.20;99.90
2579;DHT22;1299;48.282;14.398;2023-09-19T05:02:50;18.20;99.90
2579;DHT22;1299;48.282;14.398;2023-09-19T05:05:18;18.20;99.90
2579;DHT22;1299;48.282;14.398;2023-09-19T05:07:45;18.20;99.90
2579;DHT22;1299;48.282;14.398;2023-09-19T05:10:13;18.20;99.90
2579;DHT22;1299;48.282;14.398;2023-09-19T05:12:41;18.30;99.90
2579;DHT22;1299;48.282;14.398;2023-09-19T05:15:11;18.20;99.90
2579;DHT22;1299;48.282;14.398;2023-09-19T05:17:38;18.20;99.90
2579;DHT22;1299;48.282;14.398;2023-09-19T05:20:06;18.20;99.90
2579;DHT22;1299;48.282;14.398;2023-09-19T05:22:41;18.20;99.90
2579;DHT22;1299;48.282;14.398;2023-09-19T05:25:08;18.10;99.90
2579;DHT22;1299;48.282;14.398;2023-09-19T05:27:35;18.10;99.90
2579;DHT22;1299;48.282;14.398;2023-09-19T05:30:06;17.70;99.90
2579;DHT22;1299;48.282;14.398;2023-09-19T05:32:33;17.80;99.90
2579;DHT22;1299;48.282;14.398;2023-09-19T05:35:00;17.80;99.90
2579;DHT22;1299;48.282;14.398;2023-09-19T05:37:28;18.00;99.90
2579;DHT22;1299;48.282;14.398;2023-09-19T05:39:55;18.00;99.90
2579;DHT22;1299;48.282;14.398;2023-09-19T05:42:23;18.10;99.90
2579;DHT22;1299;48.282;14.398;2023-09-19T05:44:50;18.10;99.90
2579;DHT22;1299;48.282;14.398;2023-09-19T05:47:18;18.10;99.90
2579;DHT22;1299;48.282;14.398;2023-09-19T05:49:46;18.20;99.90
2579;DHT22;1299;48.282;14.398;2023-09-19T05:52:13;18.30;99.90
2579;DHT22;1299;48.282;14.398;2023-09-19T05:54:40;18.40;99.90
2579;DHT22;1299;48.282;14.398;2023-09-19T05:57:08;18.50;99.90
2579;DHT22;1299;48.282;14.398;2023-09-19T05:59:37;18.40;99.90
2579;DHT22;1299;48.282;14.398;2023-09-19T06:02:05;18.50;99.90
2579;DHT22;1299;48.282;14.398;2023-09-19T06:04:34;18.00;99.90
2579;DHT22;1299;48.282;14.398;2023-09-19T06:07:01;18.30;99.90
2579;DHT22;1299;48.282;14.398;2023-09-19T06:09:31;18.10;99.90
2579;DHT22;1299;48.282;14.398;2023-09-19T06:11:59;18.30;99.90
2579;DHT22;1299;48.282;14.398;2023-09-19T06:14:29;18.40;99.90
2579;DHT22;1299;48.282;14.398;2023-09-19T06:16:56;18.60;99.90
2579;DHT22;1299;48.282;14.398;2023-09-19T06:19:23;18.60;99.90
2579;DHT22;1299;48.282;14.398;2023-09-19T06:21:53;18.60;99.90
2579;DHT22;1299;48.282;14.398;2023-09-19T06:24:20;18.60;99.90
2579;DHT22;1299;48.282;14.398;2023-09-19T06:26:47;18.70;99.90
2579;DHT22;1299;48.282;14.398;2023-09-19T06:29:15;18.70;99.90
2579;DHT22;1299;48.282;14.398;2023-09-19T06:31:42;18.70;99.90
2579;DHT22;1299;48.282;14.398;2023-09-19T06:34:10;18.80;99.90
2579;DHT22;1299;48.282;14.398;2023-09-19T06:36:37;18.80;99.90
2579;DHT22;1299;48.282;14.398;2023-09-19T06:39:05;18.80;99.90
2579;DHT22;1299;48.282;14.398;2023-09-19T06:41:36;18.50;99.90
2579;DHT22;1299;48.282;14.398;2023-09-19T06:44:04;18.40;99.90
2579;DHT22;1299;48.282;14.398;2023-09-19T06:46:32;18.60;99.90
2579;DHT22;1299;48.282;14.398;2023-09-19T06:49:00;19.80;99.90
2579;DHT22;1299;48.282;14.398;2023-09-19T06:51:31;22.40;99.90
2579;DHT22;1299;48.282;14.398;2023-09-19T06:54:00;23.70;99.90
2579;DHT22;1299;48.282;14.398;2023-09-19T06:56:29;24.30;99.90
2579;DHT22;1299;48.282;14.398;2023-09-19T06:58:55;24.20;99.90
2579;DHT22;1299;48.282;14.398;2023-09-19T07:01:22;21.80;99.90
2579;DHT22;1299;48.282;14.398;2023-09-19T07:03:50;22.30;99.90
2579;DHT22;1299;48.282;14.398;2023-09-19T07:06:19;23.00;99.90
2579;DHT22;1299;48.282;14.398;2023-09-19T07:08:46;23.50;99.90
2579;DHT22;1299;48.282;14.398;2023-09-19T07:11:12;23.70;99.90
2579;DHT22;1299;48.282;14.398;2023-09-19T07:13:41;23.20;99.90
2579;DHT22;1299;48.282;14.398;2023-09-19T07:16:09;23.10;99.90
2579;DHT22;1299;48.282;14.398;2023-09-19T07:18:52;22.90;99.90
2579;DHT22;1299;48.282;14.398;2023-09-19T07:21:20;23.30;99.90
2579;DHT22;1299;48.282;14.398;2023-09-19T07:23:47;22.90;99.90
2579;DHT22;1299;48.282;14.398;2023-09-19T07:26:15;22.70;99.90
2579;DHT22;1299;48.282;14.398;2023-09-19T07:28:43;22.80;99.90
2579;DHT22;1299;48.282;14.398;2023-09-19T07:31:10;22.30;99.90
2579;DHT22;1299;48.282;14.398;2023-09-19T07:33:40;22.10;99.90
2579;DHT22;1299;48.282;14.398;2023-09-19T07:36:10;21.00;99.90
2579;DHT22;1299;48.282;14.398;2023-09-19T07:38:39;21.50;99.90
2579;DHT22;1299;48.282;14.398;2023-09-19T07:41:06;21.70;99.90
2579;DHT22;1299;48.282;14.398;2023-09-19T07:43:34;21.70;99.90
2579;DHT22;1299;48.282;14.398;2023-09-19T07:46:06;21.60;99.90
2579;DHT22;1299;48.282;14.398;2023-09-19T07:48:34;22.00;99.90
2579;DHT22;1299;48.282;14.398;2023-09-19T07:51:03;22.20;99.90
2579;DHT22;1299;48.282;14.398;2023-09-19T07:53:32;22.20;99.90
2579;DHT22;1299;48.282;14.398;2023-09-19T07:56:04;22.40;99.90
2579;DHT22;1299;48.282;14.398;2023-09-19T07:58:31;22.10;99.90
2579;DHT22;1299;48.282;14.398;2023-09-19T08:01:03;21.70;99.90
2579;DHT22;1299;48.282;14.398;2023-09-19T08:03:31;21.60;99.90
2579;DHT22;1299;48.282;14.398;2023-09-19T08:05:58;21.50;99.90
2579;DHT22;1299;48.282;14.398;2023-09-19T08:08:26;21.60;99.90
2579;DHT22;1299;48.282;14.398;2023-09-19T08:10:53;21.50;99.90
2579;DHT22;1299;48.282;14.398;2023-09-19T08:13:22;21.50;99.90
2579;DHT22;1299;48.282;14.398;2023-09-19T08:15:49;21.60;99.90
2579;DHT22;1299;48.282;14.398;2023-09-19T08:18:16;21.50;99.90
2579;DHT22;1299;48.282;14.398;2023-09-19T08:20:49;21.50;99.90
2579;DHT22;1299;48.282;14.398;2023-09-19T08:23:16;21.60;99.90
2579;DHT22;1299;48.282;14.398;2023-09-19T08:25:45;21.70;99.90
2579;DHT22;1299;48.282;14.398;2023-09-19T08:28:12;21.60;99.90
2579;DHT22;1299;48.282;14.398;2023-09-19T08:30:45;21.60;99.90
2579;DHT22;1299;48.282;14.398;2023-09-19T08:33:12;21.50;99.90
2579;DHT22;1299;48.282;14.398;2023-09-19T08:35:40;21.70;99.90
2579;DHT22;1299;48.282;14.398;2023-09-19T08:38:10;21.40;99.90
2579;DHT22;1299;48.282;14.398;2023-09-19T08:40:37;21.50;99.90
2579;DHT22;1299;48.282;14.398;2023-09-19T08:43:05;21.40;99.90
2579;DHT22;1299;48.282;14.398;2023-09-19T08:45:34;21.60;99.90
2579;DHT22;1299;48.282;14.398;2023-09-19T08:48:16;21.50;99.90
2579;DHT22;1299;48.282;14.398;2023-09-19T08:50:48;21.60;99.90
2579;DHT22;1299;48.282;14.398;2023-09-19T08:53:23;21.50;99.90
2579;DHT22;1299;48.282;14.398;2023-09-19T08:55:53;21.50;99.90
2579;DHT22;1299;48.282;14.398;2023-09-19T08:58:26;21.50;99.90
2579;DHT22;1299;48.282;14.398;2023-09-19T09:00:56;21.40;99.90
2579;DHT22;1299;48.282;14.398;2023-09-19T09:03:23;21.30;99.90
2579;DHT22;1299;48.282;14.398;2023-09-19T09:05:51;21.50;99.90
2579;DHT22;1299;48.282;14.398;2023-09-19T09:08:20;21.30;99.90
2579;DHT22;1299;48.282;14.398;2023-09-19T09:10:48;21.40;99.90
2579;DHT22;1299;48.282;14.398;2023-09-19T09:13:17;21.30;99.90
2579;DHT22;1299;48.282;14.398;2023-09-19T09:15:44;21.40;99.90
2579;DHT22;1299;48.282;14.398;2023-09-19T09:18:11;21.30;99.90
2579;DHT22;1299;48.282;14.398;2023-09-19T09:20:39;21.20;99.90
2579;DHT22;1299;48.282;14.398;2023-09-19T09:23:06;21.20;99.90
2579;DHT22;1299;48.282;14.398;2023-09-19T09:25:52;21.10;99.90
2579;DHT22;1299;48.282;14.398;2023-09-19T09:28:23;21.20;99.90
2579;DHT22;1299;48.282;14.398;2023-09-19T09:30:52;21.10;99.90
2579;DHT22;1299;48.282;14.398;2023-09-19T09:33:19;21.20;99.90
2579;DHT22;1299;48.282;14.398;2023-09-19T09:35:51;21.40;99.90
2579;DHT22;1299;48.282;14.398;2023-09-19T09:38:19;21.30;99.90
2579;DHT22;1299;48.282;14.398;2023-09-19T09:40:47;21.50;99.90
2579;DHT22;1299;48.282;14.398;2023-09-19T09:43:33;21.80;99.90
2579;DHT22;1299;48.282;14.398;2023-09-19T09:46:10;21.90;99.90
2579;DHT22;1299;48.282;14.398;2023-09-19T09:49:05;22.20;99.90
2579;DHT22;1299;48.282;14.398;2023-09-19T09:51:48;22.50;99.90
2579;DHT22;1299;48.282;14.398;2023-09-19T09:54:24;22.50;99.90
2579;DHT22;1299;48.282;14.398;2023-09-19T09:56:54;22.70;99.90
2579;DHT22;1299;48.282;14.398;2023-09-19T10:02:43;22.70;99.90
2579;DHT22;1299;48.282;14.398;2023-09-19T10:05:14;22.50;99.90
2579;DHT22;1299;48.282;14.398;2023-09-19T10:07:46;22.50;99.90
2579;DHT22;1299;48.282;14.398;2023-09-19T10:10:15;22.50;99.90
2579;DHT22;1299;48.282;14.398;2023-09-19T10:13:05;22.80;99.90
2579;DHT22;1299;48.282;14.398;2023-09-19T10:15:34;22.90;99.90
2579;DHT22;1299;48.282;14.398;2023-09-19T10:18:04;23.20;99.90
2579;DHT22;1299;48.282;14.398;2023-09-19T10:20:34;23.10;99.90
2579;DHT22;1299;48.282;14.398;2023-09-19T10:23:06;23.40;99.90
2579;DHT22;1299;48.282;14.398;2023-09-19T10:25:37;23.60;99.90
2579;DHT22;1299;48.282;14.398;2023-09-19T10:28:06;23.80;99.90
2579;DHT22;1299;48.282;14.398;2023-09-19T10:30:37;23.80;99.90
2579;DHT22;1299;48.282;14.398;2023-09-19T10:33:12;24.00;99.90
2579;DHT22;1299;48.282;14.398;2023-09-19T10:35:42;24.30;99.90
2579;DHT22;1299;48.282;14.398;2023-09-19T10:38:11;24.50;99.90
2579;DHT22;1299;48.282;14.398;2023-09-19T10:40:39;24.30;99.90
2579;DHT22;1299;48.282;14.398;2023-09-19T10:43:13;24.40;99.90
2579;DHT22;1299;48.282;14.398;2023-09-19T10:45:44;24.20;99.90
2579;DHT22;1299;48.282;14.398;2023-09-19T10:48:13;23.90;99.90
2579;DHT22;1299;48.282;14.398;2023-09-19T10:50:46;23.80;99.90
2579;DHT22;1299;48.282;14.398;2023-09-19T10:53:16;24.20;99.90
2579;DHT22;1299;48.282;14.398;2023-09-19T10:55:50;24.50;99.90
2579;DHT22;1299;48.282;14.398;2023-09-19T10:58:30;24.60;99.90
2579;DHT22;1299;48.282;14.398;2023-09-19T11:01:00;24.70;99.90
2579;DHT22;1299;48.282;14.398;2023-09-19T11:03:39;24.50;99.90
2579;DHT22;1299;48.282;14.398;2023-09-19T11:06:11;24.80;99.90
2579;DHT22;1299;48.282;14.398;2023-09-19T11:08:53;25.10;99.90
2579;DHT22;1299;48.282;14.398;2023-09-19T11:11:45;25.40;99.90
2579;DHT22;1299;48.282;14.398;2023-09-19T11:14:38;25.50;99.90
2579;DHT22;1299;48.282;14.398;2023-09-19T11:17:30;25.20;99.90
2579;DHT22;1299;48.282;14.398;2023-09-19T11:20:23;25.20;99.90
2579;DHT22;1299;48.282;14.398;2023-09-19T11:23:23;25.20;99.90
2579;DHT22;1299;48.282;14.398;2023-09-19T11:25:53;24.80;99.90
2579;DHT22;1299;48.282;14.398;2023-09-19T11:28:33;24.80;99.90
2579;DHT22;1299;48.282;14.398;2023-09-19T11:34:44;24.70;99.90
2579;DHT22;1299;48.282;14.398;2023-09-19T11:40:33;24.80;99.90
2579;DHT22;1299;48.282;14.398;2023-09-19T11:43:30;24.70;99.90
2579;DHT22;1299;48.282;14.398;2023-09-19T11:46:08;25.00;99.90
2579;DHT22;1299;48.282;14.398;2023-09-19T11:48:38;24.90;99.90
2579;DHT22;1299;48.282;14.398;2023-09-19T11:51:24;25.10;99.90
2579;DHT22;1299;48.282;14.398;2023-09-19T11:53:54;24.70;99.90
2579;DHT22;1299;48.282;14.398;2023-09-19T11:56:23;24.40;99.90
2579;DHT22;1299;48.282;14.398;2023-09-19T11:58:54;24.30;99.90
2579;DHT22;1299;48.282;14.398;2023-09-19T12:01:23;24.30;99.90
2579;DHT22;1299;48.282;14.398;2023-09-19T12:03:54;24.30;99.90
2579;DHT22;1299;48.282;14.398;2023-09-19T12:06:23;24.50;99.90
2579;DHT22;1299;48.282;14.398;2023-09-19T12:08:50;24.50;99.90
2579;DHT22;1299;48.282;14.398;2023-09-19T12:11:22;24.50;99.90
2579;DHT22;1299;48.282;14.398;2023-09-19T12:13:50;24.60;99.90
2579;DHT22;1299;48.282;14.398;2023-09-19T12:16:20;24.60;99.90
2579;DHT22;1299;48.282;14.398;2023-09-19T12:18:49;24.50;99.90
2579;DHT22;1299;48.282;14.398;2023-09-19T12:21:27;24.30;99.90
2579;DHT22;1299;48.282;14.398;2023-09-19T12:24:04;24.40;99.90
2579;DHT22;1299;48.282;14.398;2023-09-19T12:26:40;24.30;99.90
2579;DHT22;1299;48.282;14.398;2023-09-19T12:29:15;24.30;99.90
2579;DHT22;1299;48.282;14.398;2023-09-19T12:31:52;24.40;99.90
2579;DHT22;1299;48.282;14.398;2023-09-19T12:34:24;24.10;99.90
2579;DHT22;1299;48.282;14.398;2023-09-19T12:37:09;24.20;99.90
2579;DHT22;1299;48.282;14.398;2023-09-19T12:39:42;24.30;99.90
2579;DHT22;1299;48.282;14.398;2023-09-19T12:42:16;24.60;99.90
2579;DHT22;1299;48.282;14.398;2023-09-19T12:44:45;24.70;99.90
2579;DHT22;1299;48.282;14.398;2023-09-19T12:47:14;24.80;99.90
2579;DHT22;1299;48.282;14.398;2023-09-19T12:50:11;24.80;99.90
2579;DHT22;1299;48.282;14.398;2023-09-19T12:52:44;24.70;99.90
2579;DHT22;1299;48.282;14.398;2023-09-19T12:55:23;24.70;99.90
2579;DHT22;1299;48.282;14.398;2023-09-19T12:58:12;24.70;99.90
2579;DHT22;1299;48.282;14.398;2023-09-19T13:00:41;24.70;99.90
2579;DHT22;1299;48.282;14.398;2023-09-19T13:03:14;25.00;99.90
2579;DHT22;1299;48.282;14.398;2023-09-19T13:05:51;25.10;99.90
2579;DHT22;1299;48.282;14.398;2023-09-19T13:08:21;25.00;99.90
2579;DHT22;1299;48.282;14.398;2023-09-19T13:11:12;24.60;99.90
2579;DHT22;1299;48.282;14.398;2023-09-19T13:13:45;24.70;99.90
2579;DHT22;1299;48.282;14.398;2023-09-19T13:16:14;24.90;99.90
2579;DHT22;1299;48.282;14.398;2023-09-19T13:18:46;24.40;99.90
2579;DHT22;1299;48.282;14.398;2023-09-19T13:21:16;24.80;99.90
2579;DHT22;1299;48.282;14.398;2023-09-19T13:23:53;25.00;99.90
2579;DHT22;1299;48.282;14.398;2023-09-19T13:26:24;25.10;99.90
2579;DHT22;1299;48.282;14.398;2023-09-19T13:28:53;25.50;99.90
2579;DHT22;1299;48.282;14.398;2023-09-19T13:31:20;25.20;99.90
2579;DHT22;1299;48.282;14.398;2023-09-19T13:33:48;24.30;99.90
2579;DHT22;1299;48.282;14.398;2023-09-19T13:36:16;24.10;99.90
2579;DHT22;1299;48.282;14.398;2023-09-19T13:38:44;24.20;99.90
2579;DHT22;1299;48.282;14.398;2023-09-19T13:41:12;24.30;99.90
2579;DHT22;1299;48.282;14.398;2023-09-19T13:43:39;24.40;99.90
2579;DHT22;1299;48.282;14.398;2023-09-19T13:46:08;24.40;99.90
2579;DHT22;1299;48.282;14.398;2023-09-19T13:48:37;24.50;99.90
2579;DHT22;1299;48.282;14.398;2023-09-19T13:51:05;24.60;99.90
2579;DHT22;1299;48.282;14.398;2023-09-19T13:53:32;24.30;99.90
2579;DHT22;1299;48.282;14.398;2023-09-19T13:55:59;22.50;99.90
2579;DHT22;1299;48.282;14.398;2023-09-19T13:58:26;21.20;99.90
2579;DHT22;1299;48.282;14.398;2023-09-19T14:00:55;20.60;99.90
2579;DHT22;1299;48.282;14.398;2023-09-19T14:03:25;20.30;99.90
2579;DHT22;1299;48.282;14.398;2023-09-19T14:05:54;19.80;99.90
2579;DHT22;1299;48.282;14.398;2023-09-19T14:08:21;19.90;99.90
2579;DHT22;1299;48.282;14.398;2023-09-19T14:10:49;19.90;99.90
2579;DHT22;1299;48.282;14.398;2023-09-19T14:13:16;19.80;99.90
2579;DHT22;1299;48.282;14.398;2023-09-19T14:15:43;20.20;99.90
2579;DHT22;1299;48.282;14.398;2023-09-19T14:18:10;20.30;99.90
2579;DHT22;1299;48.282;14.398;2023-09-19T14:20:39;20.50;99.90
2579;DHT22;1299;48.282;14.398;2023-09-19T14:23:07;20.10;99.90
2579;DHT22;1299;48.282;14.398;2023-09-19T14:25:35;20.00;99.90
2579;DHT22;1299;48.282;14.398;2023-09-19T14:28:02;20.00;99.90
2579;DHT22;1299;48.282;14.398;2023-09-19T14:30:29;20.00;99.90
2579;DHT22;1299;48.282;14.398;2023-09-19T14:32:56;20.10;99.90
2579;DHT22;1299;48.282;14.398;2023-09-19T14:35:24;20.00;99.90
2579;DHT22;1299;48.282;14.398;2023-09-19T14:37:53;20.20;99.90
2579;DHT22;1299;48.282;14.398;2023-09-19T14:40:20;20.20;99.90
2579;DHT22;1299;48.282;14.398;2023-09-19T14:42:48;20.30;99.90
2579;DHT22;1299;48.282;14.398;2023-09-19T14:45:15;20.40;99.90
2579;DHT22;1299;48.282;14.398;2023-09-19T14:47:45;20.10;99.90
2579;DHT22;1299;48.282;14.398;2023-09-19T14:50:13;19.90;99.90
2579;DHT22;1299;48.282;14.398;2023-09-19T14:52:41;19.70;99.90
2579;DHT22;1299;48.282;14.398;2023-09-19T14:55:09;19.90;99.90
2579;DHT22;1299;48.282;14.398;2023-09-19T14:57:41;20.10;99.90
2579;DHT22;1299;48.282;14.398;2023-09-19T15:00:11;20.00;99.90
2579;DHT22;1299;48.282;14.398;2023-09-19T15:02:39;19.20;99.90
2579;DHT22;1299;48.282;14.398;2023-09-19T15:05:07;19.50;99.90
2579;DHT22;1299;48.282;14.398;2023-09-19T15:07:35;19.60;99.90
2579;DHT22;1299;48.282;14.398;2023-09-19T15:10:04;19.70;99.90
2579;DHT22;1299;48.282;14.398;2023-09-19T15:12:34;19.70;99.90
2579;DHT22;1299;48.282;14.398;2023-09-19T15:15:01;19.60;99.90
2579;DHT22;1299;48.282;14.398;2023-09-19T15:17:28;20.00;99.90
2579;DHT22;1299;48.282;14.398;2023-09-19T15:19:55;19.90;99.90
2579;DHT22;1299;48.282;14.398;2023-09-19T15:22:22;20.10;99.90
2579;DHT22;1299;48.282;14.398;2023-09-19T15:24:50;20.10;99.90
2579;DHT22;1299;48.282;14.398;2023-09-19T15:27:17;20.50;99.90
2579;DHT22;1299;48.282;14.398;2023-09-19T15:29:46;20.70;99.90
2579;DHT22;1299;48.282;14.398;2023-09-19T15:32:13;20.60;99.90
2579;DHT22;1299;48.282;14.398;2023-09-19T15:34:40;20.90;99.90
2579;DHT22;1299;48.282;14.398;2023-09-19T15:37:07;20.90;99.90
2579;DHT22;1299;48.282;14.398;2023-09-19T15:39:34;20.90;99.90
2579;DHT22;1299;48.282;14.398;2023-09-19T15:42:03;20.90;99.90
2579;DHT22;1299;48.282;14.398;2023-09-19T15:44:30;21.10;99.90
2579;DHT22;1299;48.282;14.398;2023-09-19T15:46:59;21.10;99.90
2579;DHT22;1299;48.282;14.398;2023-09-19T15:49:26;21.00;99.90
2579;DHT22;1299;48.282;14.398;2023-09-19T15:51:53;21.00;99.90
2579;DHT22;1299;48.282;14.398;2023-09-19T15:54:20;21.00;99.90
2579;DHT22;1299;48.282;14.398;2023-09-19T15:56:47;20.70;99.90
2579;DHT22;1299;48.282;14.398;2023-09-19T15:59:17;20.70;99.90
2579;DHT22;1299;48.282;14.398;2023-09-19T16:01:44;20.70;99.90
2579;DHT22;1299;48.282;14.398;2023-09-19T16:04:12;20.70;99.90
2579;DHT22;1299;48.282;14.398;2023-09-19T16:06:40;20.80;99.90
2579;DHT22;1299;48.282;14.398;2023-09-19T16:09:08;20.80;99.90
2579;DHT22;1299;48.282;14.398;2023-09-19T16:11:36;20.60;99.90
2579;DHT22;1299;48.282;14.398;2023-09-19T16:14:04;20.70;99.90
2579;DHT22;1299;48.282;14.398;2023-09-19T16:16:31;20.70;99.90